Date,TemperatureHighF,TemperatureAvgF,TemperatureLowF,DewpointHighF,DewpointAvgF,DewpointLowF,HumidityHigh,HumidityAvg,HumidityLow,PressureMaxIn,PressureMinIn,WindSpeedMaxMPH,WindSpeedAvgMPH,GustSpeedMaxMPH,PrecipitationSumIn
2013-1-1,32.1,25.5,17.6,32.0,24.0,15.0,98,93,83,30.32,30.11,11,5,16,0.14
2013-1-2,34.0,23.9,13.1,21.0,15.7,11.0,92,73,41,30.34,30.25,10,3,14,0.00
2013-1-3,40.0,29.7,22.2,27.0,23.0,20.0,92,77,53,30.47,30.32,11,4,15,0.00
2013-1-4,44.8,32.6,20.7,26.0,22.9,18.0,93,70,43,30.52,30.38,9,4,18,0.00
2013-1-5,39.7,35.4,29.3,32.0,28.0,23.0,88,75,67,30.37,30.20,15,7,20,0.00
2013-1-6,39.2,30.9,23.9,31.0,22.9,18.0,89,74,47,30.42,30.23,14,6,20,0.00
2013-1-7,49.6,35.7,23.6,26.0,22.9,17.0,78,61,37,30.42,30.17,11,4,16,0.00
2013-1-8,55.5,42.0,28.5,44.0,31.4,23.0,96,68,37,30.24,30.09,10,4,18,0.28
2013-1-9,54.6,47.5,42.2,44.0,40.8,33.0,98,79,57,30.42,30.24,13,6,23,0.30
2013-1-10,52.6,47.2,40.2,52.0,45.2,34.0,99,93,61,30.33,29.84,26,9,28,0.17
2013-1-11,61.1,53.0,45.0,49.0,46.5,44.0,97,79,63,29.88,29.75,18,8,26,0.17
2013-1-12,53.7,41.3,26.9,49.0,35.8,26.0,95,82,53,29.98,29.82,18,6,22,0.40
2013-1-13,26.4,20.3,15.2,25.0,17.9,12.0,95,90,86,30.43,29.95,0,0,0,0.40
2013-1-14,25.2,18.3,12.6,20.0,14.4,10.0,88,84,77,30.58,30.44,0,0,0,0.00
2013-1-15,26.4,20.4,14.4,21.0,16.5,12.0,92,85,71,30.45,30.25,8,2,11,0.00
2013-1-16,41.0,27.1,13.1,26.0,19.5,11.0,92,75,47,30.26,30.16,14,4,20,0.00
2013-1-17,43.0,32.8,25.4,31.0,25.2,21.0,94,75,50,30.54,30.23,10,5,16,0.00
2013-1-18,54.8,39.7,24.3,30.0,25.7,21.0,90,61,34,30.55,30.22,20,7,27,0.00
2013-1-19,62.6,47.4,39.0,37.0,31.8,26.0,70,56,36,30.22,30.05,17,8,29,0.00
2013-1-20,50.2,37.9,25.2,32.0,20.0,14.0,79,51,26,30.33,30.21,11,5,16,0.00
2013-1-21,31.0,23.0,17.3,15.0,11.7,8.0,76,63,51,30.44,30.32,16,6,19,0.00
2013-1-22,30.1,23.5,16.7,17.0,11.9,7.0,77,62,52,30.47,30.33,10,4,11,0.00
2013-1-23,56.4,36.5,21.4,39.0,27.5,17.0,85,71,52,30.36,30.21,13,5,19,0.00
2013-1-24,32.5,27.0,19.1,22.0,13.2,8.0,71,57,44,30.46,30.22,14,9,20,0.00
2013-1-25,47.0,34.8,25.8,28.0,24.9,18.0,92,69,47,30.32,30.18,11,5,15,0.00
2013-1-26,56.1,43.5,30.0,27.0,24.4,22.0,76,49,29,30.35,30.20,10,5,18,0.00
2013-1-27,55.7,46.1,38.8,54.0,42.1,27.0,94,86,53,30.20,29.94,17,9,24,0.02
2013-1-28,72.1,63.3,55.4,61.0,57.8,54.0,93,83,63,29.98,29.82,23,9,30,0.02
2013-1-29,66.6,58.6,49.5,61.0,56.2,49.0,98,92,81,29.82,29.45,20,7,25,1.96
2013-1-30,49.2,32.1,24.5,48.0,29.1,19.0,98,89,79,30.05,29.41,27,15,37,1.98
2013-1-31,35.5,23.0,9.9,27.0,17.2,3.0,94,79,65,30.50,30.04,25,10,28,0.00
2013-2-1,32.6,19.3,4.5,17.0,8.7,1.0,87,65,50,30.57,30.30,11,4,16,0.00
2013-2-2,47.6,36.9,25.3,35.0,27.3,15.0,86,69,58,30.30,30.15,19,8,25,0.01
2013-2-3,49.4,40.4,32.8,31.0,26.1,21.0,84,59,38,30.29,30.01,21,8,28,0.01
2013-2-4,58.9,47.3,32.6,42.0,32.8,25.0,85,58,43,30.00,29.84,15,7,26,0.00
2013-2-5,60.3,44.0,27.7,37.0,31.0,26.0,93,65,36,30.13,29.93,17,5,31,0.00
2013-2-6,56.5,45.2,35.1,38.0,33.2,29.0,79,64,45,30.18,30.02,16,8,20,0.00
2013-2-7,55.3,46.6,38.8,51.0,42.6,37.0,96,86,73,30.10,29.89,14,6,26,0.51
2013-2-8,43.2,34.1,28.0,38.0,30.3,26.0,97,86,69,30.35,30.11,15,7,19,0.51
2013-2-9,40.3,33.8,27.9,35.0,30.1,26.0,94,86,69,30.32,29.94,20,8,27,0.12
2013-2-10,59.6,47.7,37.1,52.0,37.5,26.0,97,72,35,30.00,29.65,30,13,38,0.26
2013-2-11,50.0,38.5,30.8,30.0,26.6,24.0,81,64,41,30.20,30.00,20,7,24,0.26
2013-2-12,44.0,37.1,31.0,33.0,27.9,25.0,96,71,53,30.20,29.97,11,4,18,0.12
2013-2-13,45.9,36.7,31.0,37.0,32.3,30.0,97,85,61,30.00,29.94,16,4,23,0.18
2013-2-14,52.3,42.8,35.6,35.0,30.5,25.0,79,63,46,30.16,29.95,14,8,18,0.00
2013-2-15,40.6,33.3,25.8,31.0,18.8,11.0,83,58,34,30.32,30.16,16,8,21,0.00
2013-2-16,35.8,27.8,19.2,22.0,18.1,13.0,92,68,49,30.37,30.20,14,4,19,0.00
2013-2-17,58.6,43.8,29.3,33.0,25.9,19.0,65,51,34,30.19,29.86,15,6,23,0.00
2013-2-18,53.3,44.9,28.8,50.0,38.2,24.0,94,78,61,30.07,29.57,32,11,34,0.18
2013-2-19,38.9,30.3,24.2,24.0,15.9,10.0,81,57,35,30.37,30.07,22,10,27,0.18
2013-2-20,29.7,25.6,20.9,13.0,9.8,6.0,61,52,42,30.39,30.23,12,6,15,0.00
2013-2-21,31.5,27.9,25.2,31.0,24.2,13.0,96,87,52,30.23,29.80,15,8,21,0.64
2013-2-22,31.9,25.9,21.7,31.0,22.4,19.0,96,86,74,30.15,29.87,17,8,28,0.01
2013-2-23,37.5,27.0,17.9,25.0,20.4,16.0,92,77,56,30.16,30.04,12,3,16,0.01
2013-2-24,50.5,38.4,26.0,36.0,28.5,21.0,81,68,54,30.11,29.96,19,6,19,0.00
2013-2-25,46.2,36.9,32.3,33.0,29.0,26.0,96,75,45,29.97,29.45,27,12,40,0.72
2013-2-26,33.0,31.4,30.4,32.0,30.5,29.0,97,96,94,29.85,29.36,22,11,31,0.15
2013-2-27,32.1,30.3,29.3,29.0,27.9,26.0,95,91,82,30.06,29.83,21,13,34,0.15
2013-2-28,30.4,29.0,27.0,27.0,25.4,24.0,90,86,83,30.22,30.04,20,10,25,0.00
2013-3-1,28.0,26.9,25.4,26.0,24.1,22.0,92,89,81,30.29,30.18,13,8,18,0.00
2013-3-2,29.4,24.6,17.7,25.0,18.8,15.0,100,79,67,30.38,30.28,13,5,18,0.00
2013-3-3,45.8,33.3,17.3,28.0,23.2,15.0,90,69,49,30.28,29.92,13,5,19,0.00
2013-3-4,60.5,45.7,35.8,44.0,36.8,28.0,92,72,50,29.91,29.67,15,7,25,0.00
2013-3-5,43.9,34.2,29.0,40.0,26.4,20.0,95,74,60,30.31,29.83,29,16,44,0.04
2013-3-6,42.8,32.1,25.3,26.0,21.2,18.0,76,65,50,30.45,30.31,18,6,22,0.04
2013-3-7,58.0,41.9,28.3,33.0,27.5,22.0,80,60,32,30.37,30.23,12,5,16,0.00
2013-3-8,55.1,44.2,34.6,37.0,33.6,30.0,86,68,48,30.32,30.11,13,8,23,0.04
2013-3-9,69.2,54.6,42.2,53.0,43.8,36.0,94,69,40,30.11,29.74,21,9,33,0.51
2013-3-10,55.7,47.0,30.8,55.0,45.5,30.0,98,94,78,29.86,29.63,19,8,27,0.91
2013-3-11,39.4,31.0,26.0,31.0,26.5,24.0,96,84,63,30.08,29.84,23,11,29,0.91
2013-3-12,49.9,37.6,25.5,31.0,25.2,22.0,89,63,42,30.34,30.07,22,8,30,0.00
2013-3-13,45.8,34.7,24.7,26.0,22.5,20.0,83,63,39,30.50,30.34,12,6,19,0.00
2013-3-14,69.9,49.9,29.9,41.0,31.7,22.0,76,52,34,30.43,30.13,26,7,35,0.00
2013-3-15,78.9,63.5,49.2,49.0,43.7,39.0,77,52,25,30.12,29.74,22,8,31,0.00
2013-3-16,63.8,53.1,40.1,47.0,42.1,36.0,85,67,52,29.94,29.72,16,9,22,0.00
2013-3-17,40.0,36.5,34.3,37.0,35.3,33.0,98,95,85,30.01,29.75,19,9,29,0.97
2013-3-18,51.2,42.4,38.3,41.0,36.0,26.0,98,81,51,30.08,29.72,16,8,22,0.07
2013-3-19,45.8,37.7,29.0,30.0,22.3,12.0,85,56,29,30.28,30.07,14,4,16,0.07
2013-3-20,40.3,33.3,27.1,32.0,19.1,9.0,93,61,29,30.36,30.17,21,8,33,0.00
2013-3-21,32.2,27.8,23.9,28.0,19.6,9.0,95,73,47,30.17,29.97,11,4,16,0.23
2013-3-22,34.7,31.5,28.6,34.0,30.5,27.0,98,96,94,30.01,29.95,9,5,12,0.04
2013-3-23,41.0,37.0,32.5,39.0,35.2,32.0,98,93,84,30.03,29.80,11,6,14,0.10
2013-3-24,39.5,31.7,25.7,39.0,30.7,22.0,98,96,84,30.08,29.61,27,13,33,0.27
2013-3-25,30.4,26.0,21.8,26.0,22.7,19.0,92,87,82,30.35,30.06,22,14,30,0.27
2013-3-26,38.9,30.1,21.5,29.0,24.2,20.0,93,80,59,30.46,30.35,12,5,18,0.00
2013-3-27,52.2,39.1,24.9,32.0,26.6,22.0,88,63,39,30.41,30.25,13,5,15,0.00
2013-3-28,64.6,53.0,42.6,45.0,37.8,31.0,70,57,44,30.29,30.15,11,5,19,0.00
2013-3-29,63.0,53.3,46.8,54.0,42.6,-99.9,94,73,59,30.20,30.13,10,-27,14,0.03
2013-3-30,62.1,52.3,48.1,55.0,48.5,46.0,94,87,76,30.15,29.88,15,5,22,0.03
2013-3-31,64.5,54.5,44.5,49.0,44.7,40.0,98,73,45,29.98,29.88,14,4,25,0.17
2013-4-1,51.5,44.9,38.9,40.0,32.4,23.0,83,63,43,30.26,29.96,14,6,16,0.00
2013-4-2,40.2,36.9,33.8,29.0,24.5,22.0,75,61,54,30.34,30.23,10,5,16,0.02
2013-4-3,51.2,42.4,29.2,25.0,21.7,19.0,70,46,29,30.36,30.23,17,7,22,0.00
2013-4-4,54.0,45.2,38.5,31.0,26.5,24.0,65,49,32,30.23,30.08,9,4,12,0.00
2013-4-5,71.4,52.7,32.2,40.0,33.2,27.0,81,51,29,30.21,30.00,9,3,14,0.00
2013-4-6,71.9,61.3,50.8,46.0,41.5,35.0,60,49,34,30.00,29.76,30,9,40,0.00
2013-4-7,75.5,65.2,53.0,58.0,52.5,46.0,84,65,44,29.90,29.72,15,6,25,0.00
2013-4-8,73.8,64.7,57.3,60.0,57.1,54.0,88,77,60,29.79,29.72,15,7,24,0.00
2013-4-9,75.1,67.2,60.8,63.0,59.4,55.0,83,76,61,29.82,29.71,15,7,24,0.00
2013-4-10,70.0,55.8,38.3,64.0,53.2,38.0,97,91,77,29.80,29.63,28,8,28,0.79
2013-4-11,45.9,37.8,32.9,38.0,33.4,31.0,98,85,62,29.84,29.77,23,10,29,0.80
2013-4-12,51.6,41.3,34.2,36.0,32.2,28.0,87,71,54,30.07,29.82,26,9,32,0.00
2013-4-13,68.5,51.8,34.1,46.0,38.2,32.0,91,63,37,30.11,29.85,15,4,19,0.00
2013-4-14,76.5,64.3,53.3,57.0,48.9,44.0,90,60,34,29.85,29.52,18,10,25,0.02
2013-4-15,74.2,59.6,49.9,65.0,55.4,45.0,97,86,72,29.87,29.68,16,7,19,0.04
2013-4-16,52.5,47.8,45.6,51.0,46.9,45.0,98,96,91,30.07,29.89,14,9,23,0.01
2013-4-17,80.9,67.4,46.1,69.0,60.8,46.0,100,81,60,30.05,29.63,21,8,29,0.01
2013-4-18,71.6,50.8,36.8,66.0,47.4,30.0,98,88,76,29.91,29.53,24,12,33,0.21
2013-4-19,50.6,41.1,32.9,32.0,28.6,27.0,80,63,43,30.14,29.91,28,13,34,0.22
2013-4-20,62.6,48.9,35.2,39.0,33.3,28.0,81,57,37,30.28,30.14,8,4,13,0.00
2013-4-21,65.1,55.5,46.8,44.0,39.0,37.0,72,55,37,30.32,30.16,16,8,22,0.00
2013-4-22,66.7,56.9,46.7,46.0,39.8,35.0,73,55,34,30.23,29.93,13,6,19,0.00
2013-4-23,58.2,47.1,34.8,52.0,43.0,34.0,97,87,60,30.10,29.85,17,7,17,0.02
2013-4-24,52.6,41.0,33.3,36.0,32.1,29.0,96,74,43,30.34,30.09,16,7,22,0.02
2013-4-25,67.7,51.9,32.7,40.0,33.6,28.0,87,53,28,30.40,30.25,15,4,19,0.00
2013-4-26,54.7,47.9,44.8,45.0,43.5,39.0,96,86,56,30.35,30.18,18,6,26,0.00
2013-4-27,53.8,49.2,45.7,52.0,48.3,45.0,98,96,93,30.21,30.00,11,5,18,0.00
2013-4-28,71.2,55.6,47.4,54.0,49.2,46.0,98,81,49,30.05,29.89,10,4,14,0.00
2013-4-29,83.5,67.5,51.2,62.0,56.1,49.0,93,70,36,29.92,29.75,17,6,22,0.00
2013-4-30,81.1,70.4,58.5,58.0,53.8,46.0,89,59,33,29.89,29.78,15,6,25,0.00
2013-5-1,82.2,69.0,57.3,64.0,58.5,51.0,89,70,50,30.06,29.88,13,4,21,0.00
2013-5-2,63.1,47.6,34.7,60.0,45.7,34.0,96,93,87,30.22,30.03,19,7,21,0.00
2013-5-3,33.9,32.6,31.8,33.0,31.6,31.0,97,96,95,30.21,29.95,16,8,22,0.00
2013-5-4,44.4,37.4,31.8,38.0,34.4,31.0,97,89,74,30.05,29.89,8,3,10,0.00
2013-5-5,56.2,47.2,38.6,50.0,43.8,37.0,96,88,79,30.09,30.01,14,7,22,0.01
2013-5-6,66.9,57.0,50.4,56.0,52.2,49.0,98,85,63,30.07,29.99,16,7,18,0.00
2013-5-7,76.2,64.0,50.5,55.0,52.1,48.0,95,68,38,30.07,29.98,10,3,14,0.00
2013-5-8,73.7,63.6,53.7,61.0,55.6,50.0,89,76,53,30.07,29.92,11,3,22,0.07
2013-5-9,75.2,65.2,56.0,62.0,58.4,55.0,96,80,58,29.97,29.86,19,6,29,0.34
2013-5-10,65.6,59.4,51.9,59.0,55.7,50.0,97,88,70,30.03,29.88,11,6,16,0.34
2013-5-11,69.5,57.3,45.9,54.0,43.9,30.0,98,66,25,30.20,30.05,21,6,23,0.01
2013-5-12,64.7,52.2,34.5,44.0,33.2,27.0,93,53,27,30.30,30.17,12,3,18,0.00
2013-5-13,78.1,61.6,44.4,54.0,44.9,36.0,86,57,37,30.22,30.03,14,4,16,0.00
2013-5-14,88.0,73.7,59.7,56.0,52.2,49.0,76,50,27,30.03,29.90,25,9,31,0.00
2013-5-15,82.5,68.8,61.8,67.0,58.9,52.0,97,72,60,29.96,29.87,15,6,31,0.17
2013-5-16,66.1,62.7,60.6,62.0,60.7,59.0,97,93,85,29.91,29.86,9,4,14,0.17
2013-5-17,78.0,68.0,60.2,65.0,61.9,59.0,98,82,56,29.95,29.88,7,2,10,0.00
2013-5-18,81.0,71.4,63.1,72.0,67.7,61.0,97,88,72,29.95,29.82,11,5,17,0.00
2013-5-19,84.6,75.5,68.6,73.0,68.6,64.0,98,81,52,29.87,29.67,14,6,25,0.01
2013-5-20,73.7,66.0,59.8,69.0,63.4,58.0,97,91,80,29.88,29.72,21,5,42,1.17
2013-5-21,69.4,63.7,59.4,64.0,59.7,56.0,95,87,73,29.88,29.63,20,7,28,1.18
2013-5-22,71.0,62.8,53.3,59.0,56.0,53.0,98,80,61,29.96,29.77,18,7,25,0.00
2013-5-23,71.5,61.7,51.1,57.0,54.1,50.0,97,77,58,30.20,29.96,16,6,21,0.00
2013-5-24,72.3,60.5,50.0,53.0,47.2,41.0,96,66,32,30.36,30.21,14,6,19,0.00
2013-5-25,80.3,66.6,54.5,65.0,55.2,43.0,83,67,58,30.26,30.09,13,5,20,0.00
2013-5-26,84.6,72.3,61.1,69.0,63.8,58.0,90,76,58,30.14,29.98,13,4,20,0.00
2013-5-27,81.4,72.6,64.1,70.0,65.6,61.0,93,79,67,30.00,29.78,15,6,25,0.00
2013-5-28,80.7,73.0,68.3,68.0,65.6,63.0,89,78,64,29.89,29.76,13,6,26,0.01
2013-5-29,80.7,73.5,66.6,68.0,64.8,62.0,89,75,61,29.92,29.77,17,6,26,0.00
2013-5-30,82.1,70.1,61.3,70.0,64.7,61.0,98,83,62,29.85,29.75,24,7,29,2.48
2013-5-31,82.3,72.1,62.9,73.0,68.0,62.0,96,87,73,29.88,29.71,18,7,28,0.77
2013-6-1,75.1,66.5,60.0,66.0,61.6,56.0,97,85,60,29.99,29.74,16,6,24,1.56
2013-6-2,61.7,58.8,52.0,58.0,54.9,51.0,95,87,78,30.09,29.98,10,5,15,0.00
2013-6-3,74.9,61.3,47.8,59.0,53.8,47.0,98,79,52,30.12,29.97,7,3,10,0.01
2013-6-4,73.7,64.6,56.5,63.0,58.8,54.0,92,82,67,30.05,29.95,12,4,15,0.00
2013-6-5,71.6,64.0,59.1,66.0,61.2,57.0,96,90,82,30.01,29.88,9,3,16,0.03
2013-6-6,70.0,62.2,53.8,63.0,58.8,53.0,99,89,71,29.97,29.92,9,3,12,0.04
2013-6-7,73.1,62.6,53.1,57.0,54.2,51.0,95,76,48,30.01,29.94,8,3,17,0.00
2013-6-8,78.9,65.8,49.3,61.0,55.5,48.0,96,72,48,29.99,29.88,10,3,15,0.00
2013-6-9,76.9,65.2,58.2,67.0,59.6,57.0,95,83,56,29.94,29.84,15,5,18,0.17
2013-6-10,86.4,73.4,58.3,69.0,63.5,56.0,94,73,54,29.93,29.84,13,4,17,0.17
2013-6-11,93.7,80.2,69.5,74.0,67.6,64.0,91,68,40,29.99,29.91,18,5,21,0.00
2013-6-12,90.1,80.8,71.7,73.0,69.8,67.0,89,70,48,29.95,29.84,21,8,29,0.00
2013-6-13,83.4,75.8,66.9,71.0,65.5,59.0,88,71,52,30.02,29.88,12,6,21,0.00
2013-6-14,85.1,74.3,63.8,70.0,65.5,61.0,92,75,58,30.06,29.95,10,4,13,0.00
2013-6-15,74.5,70.1,66.4,70.0,65.3,62.0,97,85,70,30.08,29.91,10,4,17,0.09
2013-6-16,88.4,73.4,66.7,75.0,68.8,65.0,98,87,62,30.05,29.93,13,4,16,0.05
2013-6-17,71.5,68.6,62.9,70.0,67.0,62.0,97,94,91,30.02,29.88,16,4,24,0.28
2013-6-18,86.5,69.4,59.0,69.0,63.2,59.0,99,82,51,30.07,29.96,15,2,21,0.29
2013-6-19,86.2,74.0,59.5,69.0,64.6,58.0,96,75,49,30.09,30.01,6,2,11,0.00
2013-6-20,86.9,76.7,65.9,70.0,67.3,63.0,91,74,54,30.11,30.01,10,4,17,0.00
2013-6-21,89.7,79.4,71.6,76.0,71.8,68.0,89,78,61,30.09,29.99,14,5,17,0.00
2013-6-22,89.2,79.1,71.4,75.0,71.6,67.0,95,79,58,30.08,29.96,10,4,16,0.00
2013-6-23,89.7,78.9,69.2,75.0,70.6,67.0,92,77,58,30.03,29.93,12,5,18,0.00
2013-6-24,89.8,80.1,71.3,74.0,70.7,69.0,91,74,53,30.07,29.94,15,5,19,0.00
2013-6-25,89.2,79.5,71.7,75.0,70.1,68.0,89,74,54,29.97,29.82,17,6,21,0.00
2013-6-26,93.6,82.8,73.8,76.0,72.5,68.0,87,72,51,29.89,29.80,18,7,26,0.00
2013-6-27,93.7,83.4,74.8,79.0,75.9,73.0,94,79,56,29.95,29.84,12,4,18,0.00
2013-6-28,86.8,76.9,66.9,77.0,66.9,59.0,97,73,49,29.94,29.82,27,6,35,0.69
2013-6-29,81.7,72.7,63.9,62.0,58.4,52.0,83,63,37,29.85,29.77,23,8,31,0.00
2013-6-30,76.7,67.3,60.9,62.0,60.1,59.0,94,79,55,29.99,29.82,15,6,20,0.00
2013-7-1,77.4,68.8,60.0,61.0,57.2,53.0,94,69,45,30.05,29.97,19,6,21,0.00
2013-7-2,77.8,67.5,58.3,57.0,54.1,52.0,85,64,43,30.10,30.02,18,5,21,0.00
2013-7-3,83.1,70.0,56.1,60.0,56.7,54.0,91,66,38,30.13,30.03,11,3,15,0.00
2013-7-4,83.7,71.0,58.8,64.0,58.8,55.0,91,68,41,30.09,29.99,8,2,12,0.00
2013-7-5,87.4,75.0,61.7,64.0,60.1,57.0,85,63,37,30.07,29.97,8,3,13,0.00
2013-7-6,89.8,75.1,64.8,68.0,63.4,59.0,91,70,36,30.04,29.95,9,3,15,0.00
2013-7-7,91.9,78.9,66.9,71.0,65.2,62.0,89,66,38,30.06,29.99,9,3,13,0.00
2013-7-8,91.4,78.9,69.8,73.0,68.7,65.0,89,72,45,30.10,30.03,15,3,17,0.00
2013-7-9,94.7,82.6,71.7,74.0,70.4,67.0,86,68,45,30.08,29.95,12,4,21,0.00
2013-7-10,91.7,80.4,71.2,77.0,71.9,69.0,95,77,48,30.03,29.92,12,4,20,0.17
2013-7-11,87.0,77.7,69.2,74.0,65.9,58.0,94,70,38,30.04,29.98,10,5,15,0.00
2013-7-12,86.9,73.5,63.6,63.0,58.2,52.0,83,62,31,30.10,30.02,11,-7,15,0.00
2013-7-13,82.5,72.5,61.2,64.0,59.4,55.0,84,65,44,30.09,29.98,8,4,12,0.00
2013-7-14,86.6,75.2,63.7,64.0,60.7,56.0,88,63,36,30.11,30.02,11,5,17,0.00
2013-7-15,88.2,75.8,66.3,71.0,67.2,63.0,95,76,49,30.20,30.10,11,4,14,0.00
2013-7-16,89.5,76.6,69.5,74.0,70.8,68.0,98,84,50,30.30,30.19,7,3,14,0.03
2013-7-17,91.7,80.2,70.4,73.0,69.8,67.0,94,72,46,30.35,30.20,9,2,14,0.00
2013-7-18,96.7,82.6,71.1,77.0,68.8,66.0,85,65,37,30.23,30.03,7,2,14,0.19
2013-7-19,93.4,79.8,70.5,72.0,69.2,67.0,90,72,46,30.04,29.92,8,3,12,0.00
2013-7-20,93.0,76.4,69.4,74.0,69.2,66.0,93,80,46,29.96,29.86,18,5,29,0.97
2013-7-21,81.5,72.8,68.9,72.0,69.5,68.0,97,90,68,29.96,29.88,6,2,12,0.39
2013-7-22,87.0,76.3,66.9,73.0,68.9,66.0,99,80,54,29.93,29.84,21,6,24,0.16
2013-7-23,92.8,78.9,68.8,78.0,72.2,67.0,95,81,60,29.90,29.80,14,5,24,0.26
2013-7-24,84.1,74.5,67.6,70.0,65.9,59.0,96,76,43,30.05,29.88,10,4,13,0.00
2013-7-25,82.9,72.9,61.5,65.0,61.0,57.0,88,68,45,30.14,30.05,8,2,11,0.00
2013-7-26,70.6,68.1,64.9,68.0,65.3,62.0,98,91,75,30.08,30.02,6,2,11,0.80
2013-7-27,74.9,67.9,61.2,65.0,60.4,56.0,99,79,55,30.10,30.01,11,4,15,0.00
2013-7-28,72.8,65.5,57.9,65.0,59.9,56.0,94,83,65,30.11,30.04,7,2,11,0.00
2013-7-29,79.0,69.9,63.5,72.0,66.5,62.0,95,89,78,30.15,30.06,10,4,14,0.05
2013-7-30,81.0,73.9,69.0,75.0,71.5,68.0,98,92,79,30.09,30.01,12,4,21,2.10
2013-7-31,84.4,76.5,69.9,74.0,71.2,67.0,99,85,60,30.09,30.01,11,3,15,0.00
2013-8-1,85.2,74.0,61.6,69.0,65.3,61.0,98,76,48,30.13,30.02,10,2,10,0.00
2013-8-2,83.8,74.3,68.2,76.0,69.2,63.0,93,84,74,30.02,29.89,7,3,13,0.01
2013-8-3,85.2,75.3,67.3,74.0,71.0,67.0,99,87,62,30.12,29.90,19,4,31,3.81
2013-8-4,72.8,70.8,69.0,72.0,70.1,68.0,98,97,95,30.18,30.06,7,3,11,0.43
2013-8-5,85.8,72.8,69.1,78.0,71.0,69.0,99,94,77,30.08,29.88,17,4,20,1.29
2013-8-6,81.0,73.2,67.9,76.0,70.0,-99.9,98,93,84,29.97,29.83,22,5,31,0.47
2013-8-7,84.2,75.9,68.5,76.0,72.8,67.0,98,90,76,29.98,29.83,27,4,39,0.58
2013-8-8,85.6,74.7,69.7,74.0,71.2,69.0,98,90,61,30.01,29.88,10,3,20,0.44
2013-8-9,80.2,73.7,69.2,73.0,70.2,66.0,99,89,72,30.07,29.96,13,5,16,0.00
2013-8-10,81.7,72.4,64.6,69.0,66.4,63.0,98,83,55,30.18,30.08,12,6,16,0.11
2013-8-11,83.6,74.5,65.3,73.0,69.4,63.0,96,84,68,30.15,30.05,9,3,13,0.00
2013-8-12,81.3,74.7,69.6,76.0,71.3,68.0,99,90,69,30.07,29.97,11,3,24,0.04
2013-8-13,78.1,71.5,65.4,69.0,65.6,61.0,98,82,59,30.12,30.01,10,4,12,0.00
2013-8-14,75.0,66.0,58.8,62.0,56.5,52.0,95,74,48,30.21,30.11,13,6,16,0.00
2013-8-15,73.3,63.6,54.2,57.0,53.4,51.0,91,71,49,30.19,30.08,9,3,11,0.00
2013-8-16,71.4,63.6,56.9,59.0,56.4,54.0,94,78,57,30.18,30.10,8,3,12,0.00
2013-8-17,76.3,66.4,55.5,63.0,58.8,54.0,95,78,58,30.20,30.11,11,4,15,0.00
2013-8-18,80.7,70.0,60.4,65.0,62.5,59.0,96,79,56,30.18,30.09,9,3,13,0.00
2013-8-19,85.5,72.5,61.5,68.0,64.8,61.0,98,79,49,30.15,30.05,5,1,8,0.00
2013-8-20,85.9,73.8,63.0,69.0,64.8,62.0,96,76,48,30.12,30.05,7,2,9,0.00
2013-8-21,88.9,76.1,64.7,72.0,67.3,63.0,93,76,53,30.14,30.06,9,2,13,0.00
2013-8-22,91.2,78.0,67.9,72.0,67.8,65.0,92,73,44,30.14,30.04,6,2,11,0.00
2013-8-23,88.9,78.2,67.2,74.0,69.1,66.0,96,75,50,30.11,30.04,7,2,9,0.00
2013-8-24,88.7,78.4,71.1,74.0,69.8,67.0,93,77,51,30.18,30.07,9,4,11,0.00
2013-8-25,91.2,78.4,68.1,74.0,69.4,66.0,95,76,49,30.24,30.16,7,3,11,0.00
2013-8-26,92.0,79.4,70.6,74.0,71.5,70.0,97,79,51,30.22,30.11,11,3,15,0.00
2013-8-27,90.2,78.5,69.1,71.0,68.8,66.0,92,74,46,30.13,30.04,10,3,15,0.00
2013-8-28,91.1,78.2,67.3,74.0,69.2,65.0,95,76,50,30.09,30.03,14,3,16,0.00
2013-8-29,94.4,81.1,68.7,76.0,71.5,67.0,95,75,51,30.08,29.99,8,2,11,0.00
2013-8-30,94.5,82.8,73.2,77.0,72.8,71.0,91,74,47,30.00,29.87,12,3,16,0.00
2013-8-31,96.2,83.0,71.8,74.0,71.9,69.0,90,71,45,29.91,29.79,12,4,16,0.00
2013-9-1,86.6,77.2,70.7,74.0,70.7,69.0,96,81,61,29.93,29.78,13,3,22,0.17
2013-9-2,82.6,74.1,67.0,70.0,63.9,60.0,96,73,47,30.02,29.90,10,4,17,0.00
2013-9-3,84.6,72.2,58.3,64.0,59.2,55.0,96,67,38,30.10,30.00,6,2,13,0.00
2013-9-4,85.1,72.5,59.6,63.0,58.8,56.0,87,65,40,30.18,30.08,6,2,10,0.00
2013-9-5,85.1,73.6,61.1,64.0,60.5,58.0,89,66,42,30.21,30.13,11,2,11,0.00
2013-9-6,86.1,73.6,63.8,66.0,62.4,59.0,90,70,43,30.17,30.04,7,2,10,0.00
2013-9-7,92.4,77.2,64.5,70.0,65.4,61.0,95,70,39,30.07,29.94,9,2,12,0.00
2013-9-8,91.3,78.2,69.9,74.0,68.7,64.0,91,73,53,29.98,29.89,7,3,12,0.02
2013-9-9,93.7,81.0,71.7,71.0,68.3,64.0,91,68,38,30.01,29.92,9,3,18,0.00
2013-9-10,93.1,80.0,69.8,68.0,65.0,61.0,83,63,35,30.12,30.00,10,3,15,0.00
2013-9-11,93.3,79.1,67.3,70.0,66.6,62.0,86,67,42,30.15,30.05,9,2,11,0.00
2013-9-12,86.3,76.3,68.8,70.0,67.6,63.0,94,75,55,30.09,30.01,13,4,16,0.00
2013-9-13,75.4,66.7,57.5,62.0,50.8,48.0,78,58,39,30.13,30.04,13,6,14,0.00
2013-9-14,78.0,63.8,51.3,54.0,49.9,46.0,83,63,38,30.15,30.03,9,4,14,0.00
2013-9-15,86.5,70.7,57.5,65.0,56.6,49.0,74,63,46,30.08,30.02,12,4,15,0.00
2013-9-16,72.7,66.1,61.7,68.0,63.6,61.0,98,92,67,30.20,30.07,12,6,15,0.42
2013-9-17,76.7,67.9,61.4,70.0,65.1,60.0,98,91,77,30.20,30.06,11,4,14,0.27
2013-9-18,78.2,71.7,68.8,70.0,67.5,65.0,95,87,71,30.06,29.96,9,4,18,0.51
2013-9-19,88.4,75.9,70.6,73.0,68.8,66.0,90,79,56,30.01,29.88,13,5,22,0.00
2013-9-20,74.0,64.8,55.4,70.0,61.8,52.0,98,90,74,29.99,29.91,22,5,26,0.39
2013-9-21,71.5,59.6,50.6,53.0,48.8,43.0,93,71,36,30.07,29.97,13,4,17,0.00
2013-9-22,75.3,60.3,45.5,55.0,49.8,44.0,96,72,42,30.05,29.93,8,2,11,0.00
2013-9-23,75.8,63.1,52.5,57.0,53.3,49.0,88,72,46,29.99,29.86,10,4,16,0.00
2013-9-24,78.3,67.3,59.2,61.0,57.9,55.0,86,73,51,29.94,29.83,14,4,19,0.00
2013-9-25,77.7,65.6,54.2,63.0,58.8,53.0,98,81,52,29.90,29.83,8,2,10,0.00
2013-9-26,81.6,69.3,59.1,65.0,62.1,57.0,96,79,55,30.00,29.88,11,3,14,0.01
2013-9-27,82.9,71.9,63.5,68.0,63.9,62.0,95,77,51,30.05,29.95,11,5,17,0.00
2013-9-28,77.6,68.0,60.9,69.0,64.3,60.0,98,88,71,30.05,29.93,14,5,22,0.38
2013-9-29,71.9,61.4,53.8,60.0,54.6,51.0,98,80,50,30.10,29.99,12,4,15,0.02
2013-9-30,76.6,66.4,56.3,65.0,62.2,53.0,99,87,65,29.99,29.89,9,3,14,0.01
2013-10-1,83.1,71.7,64.9,69.0,66.0,63.0,98,84,55,30.02,29.92,11,3,14,0.00
2013-10-2,81.4,70.6,64.1,72.0,67.4,63.0,98,90,70,30.05,29.95,8,3,14,0.02
2013-10-3,82.4,72.2,65.0,72.0,68.1,64.0,97,87,68,29.97,29.86,12,4,17,0.00
2013-10-4,83.6,73.5,67.7,71.0,68.2,66.0,96,84,66,29.95,29.87,14,4,21,0.01
2013-10-5,70.9,57.4,46.6,69.0,56.3,46.0,98,96,85,30.02,29.90,18,4,30,0.91
2013-10-6,56.5,49.9,42.3,47.0,43.0,39.0,98,78,60,30.04,29.95,20,8,25,0.01
2013-10-7,68.8,55.3,45.0,51.0,46.3,43.0,94,74,46,30.19,30.04,18,4,25,0.00
2013-10-8,71.0,58.4,47.0,54.0,49.3,45.0,93,74,52,30.21,30.11,10,2,15,0.00
2013-10-9,73.8,59.4,48.1,55.0,49.6,44.0,88,72,44,30.17,30.09,6,2,10,0.00
2013-10-10,75.0,62.4,51.7,59.0,54.7,50.0,96,78,48,30.14,29.98,9,3,12,0.00
2013-10-11,77.7,65.5,56.6,65.0,60.0,55.0,96,83,64,29.99,29.88,12,5,17,0.01
2013-10-12,69.2,62.4,54.3,62.0,55.9,45.0,96,80,59,30.22,29.92,17,4,36,0.43
2013-10-13,68.0,58.0,50.1,47.0,44.1,41.0,77,61,41,30.40,30.23,13,6,18,0.00
2013-10-14,64.6,58.5,51.5,60.0,50.8,42.0,92,76,62,30.33,30.02,9,5,19,0.01
2013-10-15,62.5,58.4,50.5,61.0,55.9,47.0,98,91,83,30.07,29.91,15,6,22,0.32
2013-10-16,56.6,49.1,41.1,46.0,42.9,38.0,92,80,63,30.15,30.04,12,4,14,0.00
2013-10-17,62.3,51.9,44.3,47.0,44.3,42.0,97,77,48,30.09,30.00,12,5,21,0.00
2013-10-18,56.7,47.4,40.1,45.0,42.2,39.0,96,83,65,30.12,30.04,9,4,14,0.16
2013-10-19,56.0,43.8,35.0,42.0,37.4,34.0,96,80,49,30.15,30.05,14,6,19,0.02
2013-10-20,66.6,52.5,41.0,45.0,41.0,37.0,87,67,38,30.07,29.92,14,6,21,0.00
2013-10-21,54.1,48.1,36.4,45.0,40.8,35.0,95,77,54,30.14,29.99,10,4,15,0.00
2013-10-22,63.1,47.7,34.3,46.0,39.0,33.0,96,74,51,30.13,29.94,19,7,27,0.01
2013-10-23,54.1,42.7,31.7,38.0,34.9,30.0,94,75,52,30.22,30.08,9,3,14,0.00
2013-10-24,48.5,43.0,36.3,39.0,30.7,25.0,86,64,41,30.48,30.15,13,4,20,0.00
2013-10-25,54.8,40.8,26.7,33.0,28.1,25.0,93,64,34,30.57,30.27,10,3,15,0.00
2013-10-26,62.6,51.1,39.7,51.0,42.9,31.0,85,74,64,30.26,30.12,14,6,21,0.00
2013-10-27,66.7,49.7,35.8,43.0,34.7,29.0,91,59,33,30.16,30.03,9,2,11,0.00
2013-10-28,67.0,54.4,44.5,56.0,48.6,43.0,99,83,52,30.22,30.07,8,3,12,0.01
2013-10-29,63.6,58.2,51.7,63.0,57.3,50.0,98,97,92,30.21,30.03,14,5,22,1.88
2013-10-30,67.2,63.7,60.8,65.0,62.3,59.0,98,95,90,30.07,29.83,15,6,26,0.21
2013-10-31,63.2,57.7,47.2,62.0,56.5,46.0,98,96,93,29.81,29.46,25,6,32,0.93
2013-11-1,62.3,51.2,44.9,48.0,43.9,41.0,97,78,48,29.99,29.74,23,8,28,0.02
2013-11-2,51.2,44.1,34.8,42.0,38.4,33.0,94,81,61,30.27,29.99,19,7,21,0.00
2013-11-3,57.5,45.7,33.2,42.0,37.6,32.0,96,75,53,30.31,30.10,21,6,30,0.01
2013-11-4,58.0,50.8,46.3,50.0,44.7,40.0,95,80,69,30.22,30.08,16,6,22,0.00
2013-11-5,58.5,54.3,51.2,57.0,53.3,50.0,97,96,93,30.21,29.98,15,7,26,0.42
2013-11-7,56.8,47.4,36.6,42.0,36.4,33.0,86,67,46,30.49,30.40,15,5,20,0.00
2013-11-8,61.6,47.5,32.7,40.0,35.4,30.0,92,65,43,30.41,30.11,13,5,18,0.00
2013-11-9,64.0,52.4,45.3,47.0,42.1,38.0,88,69,52,30.30,30.12,17,4,21,0.00
2013-11-10,63.2,51.0,42.8,43.0,36.0,33.0,89,59,34,30.43,30.30,11,3,14,0.00
2013-11-11,61.0,50.8,34.8,52.0,43.0,33.0,94,75,61,30.48,30.20,20,6,29,0.02
2013-11-12,35.0,28.4,20.2,31.0,17.6,11.0,91,66,38,30.80,30.49,19,7,24,0.00
2013-11-13,48.2,32.0,16.5,20.0,16.6,13.0,89,58,28,30.77,30.38,11,4,18,0.00
2013-11-14,53.4,42.5,29.7,27.0,20.7,16.0,64,44,25,30.37,30.08,19,6,22,0.00
2013-11-15,55.6,47.0,41.4,48.0,39.7,27.0,94,76,49,30.10,29.90,11,5,20,0.01
2013-11-16,67.2,59.8,49.9,61.0,55.7,48.0,94,86,72,29.90,29.61,20,8,27,0.03
2013-11-17,72.4,63.2,47.4,64.0,44.2,21.0,90,55,24,30.05,29.50,33,14,49,0.00
2013-11-18,57.3,46.0,37.1,38.0,30.3,26.0,82,57,30,30.33,30.05,11,4,15,0.00
2013-11-19,55.5,46.6,39.0,32.0,26.2,15.0,62,46,30,30.32,30.14,12,5,20,0.00
2013-11-20,53.7,45.7,36.9,34.0,30.0,19.0,80,56,37,30.14,29.98,15,8,21,0.08
2013-11-21,51.4,48.7,45.5,49.0,44.9,34.0,97,88,54,30.27,30.05,15,4,19,0.73
2013-11-22,45.0,30.7,28.5,44.0,30.0,28.0,98,97,94,30.60,30.27,15,8,19,0.01
2013-11-23,35.7,27.4,16.6,28.0,19.3,9.0,95,73,50,30.77,30.59,15,8,21,0.00
2013-11-24,27.2,20.7,11.4,13.0,9.5,7.0,86,64,44,30.79,30.48,10,5,13,0.00
2013-11-25,35.0,30.5,27.1,28.0,20.9,9.0,81,68,46,30.47,30.25,9,4,14,0.00
2013-11-26,40.4,31.4,21.2,30.0,23.9,13.0,86,74,61,30.38,30.18,19,7,26,0.00
2013-11-27,33.2,22.9,15.3,15.0,11.9,10.0,78,64,43,30.48,30.36,11,5,16,0.00
2013-11-28,49.6,36.1,24.0,29.0,21.8,14.0,70,57,43,30.52,30.34,17,7,29,0.00
2013-11-29,54.3,40.1,29.1,32.0,27.8,23.0,78,63,42,30.56,30.38,11,4,15,0.00
2013-11-30,59.0,45.9,33.9,43.0,36.4,28.0,84,70,55,30.37,30.14,17,6,23,0.00
2013-12-1,60.9,48.3,38.1,49.0,44.3,37.0,97,86,63,30.17,29.91,9,3,13,0.00
2013-12-2,59.4,47.6,35.7,48.0,44.2,35.0,98,89,66,29.92,29.70,8,3,13,0.00
2013-12-3,59.3,50.3,43.6,52.0,47.8,42.0,98,91,76,29.71,29.60,16,5,20,0.00
2013-12-4,64.1,48.5,31.2,52.0,44.7,29.0,96,87,56,29.95,29.59,19,8,26,0.00
2013-12-5,30.7,21.8,17.5,28.0,18.5,15.0,93,86,77,30.38,29.95,17,8,22,0.21
2013-12-6,18.0,16.3,10.3,16.0,13.6,5.0,93,89,76,30.67,30.34,12,7,19,0.01
2013-12-7,18.2,12.3,5.0,11.0,5.6,1.0,94,75,61,30.76,30.45,15,7,20,0.00
2013-12-8,26.3,21.2,16.2,25.0,18.3,8.0,96,88,69,30.45,30.10,15,5,21,0.00
2013-12-9,26.2,21.1,17.5,25.0,17.6,14.0,94,86,73,30.42,30.23,15,6,21,0.17
2013-12-10,31.5,20.2,7.6,17.0,13.3,5.0,92,76,54,30.49,30.36,15,6,19,0.00
2013-12-11,32.5,23.6,14.9,23.0,15.6,6.0,89,72,50,30.70,30.39,15,5,17,0.00
2013-12-12,39.0,25.0,9.6,20.0,13.0,4.0,78,62,44,30.70,30.35,13,5,18,0.00
2013-12-13,33.9,31.9,28.3,32.0,27.1,16.0,97,83,60,30.35,29.93,13,6,19,0.49
2013-12-14,32.7,29.0,24.1,32.0,28.0,22.0,98,96,92,30.28,29.89,20,8,27,0.21
2013-12-15,42.5,31.0,18.0,34.0,26.7,17.0,95,84,71,30.29,30.14,14,7,20,0.00
2013-12-16,56.9,45.0,37.5,36.0,33.3,31.0,77,65,45,30.17,30.07,18,6,20,0.00
2013-12-17,49.8,37.9,27.7,36.0,30.1,25.0,94,75,49,30.36,30.14,18,5,19,0.00
2013-12-18,56.9,43.3,27.5,38.0,31.1,23.0,87,63,46,30.34,29.98,16,6,24,0.00
2013-12-19,54.5,51.4,46.8,51.0,45.7,38.0,89,81,69,29.98,29.76,16,7,23,0.00
2013-12-20,60.9,44.4,29.8,57.0,42.4,29.0,97,93,82,29.90,29.74,17,6,23,0.04
2013-12-21,33.7,31.7,29.9,33.0,31.1,29.0,98,97,96,29.85,29.57,6,0,9,0.96
2013-12-22,34.7,27.6,22.4,34.0,26.2,20.0,98,94,90,30.40,29.72,16,10,25,0.00
2013-12-23,23.2,18.0,13.3,21.0,15.4,10.0,93,89,81,30.67,30.40,12,6,16,0.00
2013-12-24,31.9,20.5,8.9,21.0,14.6,7.0,100,78,64,30.67,30.37,13,6,22,0.00
2013-12-25,35.8,29.9,25.2,32.0,26.8,20.0,96,88,80,30.44,30.36,14,5,19,0.00
2013-12-26,46.9,33.5,20.5,36.0,26.4,19.0,98,78,46,30.46,30.34,12,4,18,0.00
2013-12-27,56.0,42.2,33.1,34.0,29.9,26.0,79,63,41,30.45,30.33,11,6,15,0.00
2013-12-28,53.6,42.3,34.2,35.0,29.6,27.0,76,62,41,30.33,29.97,11,4,16,0.00
2013-12-29,42.2,27.3,15.1,35.0,21.8,9.0,90,80,66,30.32,29.95,16,8,20,0.00
2013-12-30,34.7,21.0,9.6,18.0,9.8,5.0,82,64,39,30.40,30.30,14,4,19,0.00
2013-12-31,52.7,36.6,20.5,27.0,21.7,15.0,80,57,34,30.45,30.21,15,6,19,0.00
2014-1-1,48.3,36.3,19.0,30.0,26.1,17.0,92,68,47,30.20,29.95,14,5,19,0.01
2014-1-2,18.4,12.8,8.3,16.0,7.7,2.0,92,80,62,30.57,30.15,16,8,22,0.00